sensor_id;sensor_type;location;lat;lon;timestamp;P1;durP1;ratioP1;P2;durP2;ratioP2
8538;SDS011;4307;53.868;11.680;2022-09-01T00:01:55;2.07;;;1.90;;
8538;SDS011;4307;53.868;11.680;2022-09-01T00:04:23;2.47;;;1.90;;
8538;SDS011;4307;53.868;11.680;2022-09-01T00:06:52;2.67;;;2.47;;
8538;SDS011;4307;53.868;11.680;2022-09-01T00:09:20;3.70;;;2.37;;
8538;SDS011;4307;53.868;11.680;2022-09-01T00:11:49;4.23;;;2.70;;
8538;SDS011;4307;53.868;11.680;2022-09-01T00:14:18;3.20;;;2.30;;
8538;SDS011;4307;53.868;11.680;2022-09-01T00:16:46;3.40;;;3.10;;
8538;SDS011;4307;53.868;11.680;2022-09-01T00:19:13;2.33;;;2.23;;
8538;SDS011;4307;53.868;11.680;2022-09-01T00:21:41;2.50;;;2.30;;
8538;SDS011;4307;53.868;11.680;2022-09-01T00:24:12;3.87;;;2.30;;
8538;SDS011;4307;53.868;11.680;2022-09-01T00:26:41;3.50;;;2.50;;
8538;SDS011;4307;53.868;11.680;2022-09-01T00:29:08;3.47;;;2.37;;
8538;SDS011;4307;53.868;11.680;2022-09-01T00:31:35;1.93;;;1.77;;
8538;SDS011;4307;53.868;11.680;2022-09-01T00:34:01;3.57;;;2.37;;
8538;SDS011;4307;53.868;11.680;2022-09-01T00:36:28;10.77;;;2.27;;
8538;SDS011;4307;53.868;11.680;2022-09-01T00:38:55;3.87;;;2.07;;
8538;SDS011;4307;53.868;11.680;2022-09-01T00:41:25;4.23;;;2.40;;
8538;SDS011;4307;53.868;11.680;2022-09-01T00:43:58;3.83;;;2.20;;
8538;SDS011;4307;53.868;11.680;2022-09-01T00:46:26;4.70;;;2.53;;
8538;SDS011;4307;53.868;11.680;2022-09-01T00:48:55;4.63;;;2.00;;
8538;SDS011;4307;53.868;11.680;2022-09-01T00:51:25;3.00;;;2.17;;
8538;SDS011;4307;53.868;11.680;2022-09-01T00:53:53;2.53;;;2.37;;
8538;SDS011;4307;53.868;11.680;2022-09-01T00:56:20;3.30;;;2.20;;
8538;SDS011;4307;53.868;11.680;2022-09-01T00:58:49;3.83;;;2.00;;
8538;SDS011;4307;53.868;11.680;2022-09-01T01:01:17;8.47;;;2.30;;
8538;SDS011;4307;53.868;11.680;2022-09-01T01:03:44;2.83;;;2.40;;
8538;SDS011;4307;53.868;11.680;2022-09-01T01:06:11;2.30;;;1.70;;
8538;SDS011;4307;53.868;11.680;2022-09-01T01:08:41;2.13;;;1.97;;
8538;SDS011;4307;53.868;11.680;2022-09-01T01:11:26;2.37;;;2.17;;
8538;SDS011;4307;53.868;11.680;2022-09-01T01:13:57;2.50;;;1.90;;
8538;SDS011;4307;53.868;11.680;2022-09-01T01:16:34;2.53;;;2.07;;
8538;SDS011;4307;53.868;11.680;2022-09-01T01:19:01;2.00;;;1.90;;
8538;SDS011;4307;53.868;11.680;2022-09-01T01:21:31;1.60;;;1.50;;
8538;SDS011;4307;53.868;11.680;2022-09-01T01:24:24;2.53;;;1.40;;
8538;SDS011;4307;53.868;11.680;2022-09-01T01:26:52;1.50;;;1.40;;
8538;SDS011;4307;53.868;11.680;2022-09-01T01:29:24;3.80;;;1.40;;
8538;SDS011;4307;53.868;11.680;2022-09-01T01:31:53;1.70;;;1.60;;
8538;SDS011;4307;53.868;11.680;2022-09-01T01:34:20;1.30;;;1.30;;
8538;SDS011;4307;53.868;11.680;2022-09-01T01:36:48;1.17;;;1.10;;
8538;SDS011;4307;53.868;11.680;2022-09-01T01:39:16;1.47;;;1.37;;
8538;SDS011;4307;53.868;11.680;2022-09-01T01:41:46;1.90;;;1.80;;
8538;SDS011;4307;53.868;11.680;2022-09-01T01:44:15;1.00;;;1.00;;
8538;SDS011;4307;53.868;11.680;2022-09-01T01:46:47;1.83;;;1.73;;
8538;SDS011;4307;53.868;11.680;2022-09-01T01:49:17;1.90;;;1.70;;
8538;SDS011;4307;53.868;11.680;2022-09-01T01:51:45;2.10;;;1.67;;
8538;SDS011;4307;53.868;11.680;2022-09-01T01:54:12;1.63;;;1.53;;
8538;SDS011;4307;53.868;11.680;2022-09-01T01:56:41;6.07;;;1.90;;
8538;SDS011;4307;53.868;11.680;2022-09-01T01:59:09;1.30;;;1.30;;
8538;SDS011;4307;53.868;11.680;2022-09-01T02:01:38;1.57;;;1.50;;
8538;SDS011;4307;53.868;11.680;2022-09-01T02:04:07;1.60;;;1.50;;
8538;SDS011;4307;53.868;11.680;2022-09-01T02:06:35;3.53;;;1.83;;
8538;SDS011;4307;53.868;11.680;2022-09-01T02:09:05;1.50;;;1.40;;
8538;SDS011;4307;53.868;11.680;2022-09-01T02:11:33;1.50;;;1.40;;
8538;SDS011;4307;53.868;11.680;2022-09-01T02:14:02;2.10;;;1.50;;
8538;SDS011;4307;53.868;11.680;2022-09-01T02:16:32;1.37;;;1.33;;
8538;SDS011;4307;53.868;11.680;2022-09-01T02:18:59;1.13;;;1.13;;
8538;SDS011;4307;53.868;11.680;2022-09-01T02:21:28;1.23;;;1.13;;
8538;SDS011;4307;53.868;11.680;2022-09-01T02:23:56;1.23;;;1.10;;
8538;SDS011;4307;53.868;11.680;2022-09-01T02:26:25;1.33;;;1.27;;
8538;SDS011;4307;53.868;11.680;2022-09-01T02:28:55;2.00;;;1.30;;
8538;SDS011;4307;53.868;11.680;2022-09-01T02:31:26;5.90;;;1.47;;
8538;SDS011;4307;53.868;11.680;2022-09-01T02:33:54;1.40;;;1.30;;
8538;SDS011;4307;53.868;11.680;2022-09-01T02:36:21;3.97;;;1.60;;
8538;SDS011;4307;53.868;11.680;2022-09-01T02:38:49;1.70;;;1.60;;
8538;SDS011;4307;53.868;11.680;2022-09-01T02:41:16;1.60;;;1.50;;
8538;SDS011;4307;53.868;11.680;2022-09-01T02:43:45;1.47;;;1.37;;
8538;SDS011;4307;53.868;11.680;2022-09-01T02:46:12;2.37;;;2.17;;
8538;SDS011;4307;53.868;11.680;2022-09-01T02:48:40;2.93;;;1.23;;
8538;SDS011;4307;53.868;11.680;2022-09-01T02:51:11;1.33;;;1.33;;
8538;SDS011;4307;53.868;11.680;2022-09-01T02:53:40;1.40;;;1.30;;
8538;SDS011;4307;53.868;11.680;2022-09-01T02:56:08;2.50;;;1.03;;
8538;SDS011;4307;53.868;11.680;2022-09-01T02:58:39;2.03;;;1.10;;
8538;SDS011;4307;53.868;11.680;2022-09-01T03:01:11;3.17;;;1.37;;
8538;SDS011;4307;53.868;11.680;2022-09-01T03:03:39;1.30;;;1.20;;
8538;SDS011;4307;53.868;11.680;2022-09-01T03:06:06;1.90;;;1.30;;
8538;SDS011;4307;53.868;11.680;2022-09-01T03:08:35;0.90;;;0.90;;
8538;SDS011;4307;53.868;11.680;2022-09-01T03:11:04;3.43;;;1.17;;
8538;SDS011;4307;53.868;11.680;2022-09-01T03:13:34;1.50;;;1.20;;
8538;SDS011;4307;53.868;11.680;2022-09-01T03:16:02;0.90;;;0.90;;
8538;SDS011;4307;53.868;11.680;2022-09-01T03:18:29;1.63;;;1.53;;
8538;SDS011;4307;53.868;11.680;2022-09-01T03:20:56;2.00;;;0.93;;
8538;SDS011;4307;53.868;11.680;2022-09-01T03:23:24;1.03;;;1.03;;
8538;SDS011;4307;53.868;11.680;2022-09-01T03:25:53;1.10;;;1.00;;
8538;SDS011;4307;53.868;11.680;2022-09-01T03:28:20;0.90;;;0.90;;
8538;SDS011;4307;53.868;11.680;2022-09-01T03:30:48;3.07;;;1.23;;
8538;SDS011;4307;53.868;11.680;2022-09-01T03:33:17;0.60;;;0.60;;
8538;SDS011;4307;53.868;11.680;2022-09-01T03:35:45;1.50;;;1.00;;
8538;SDS011;4307;53.868;11.680;2022-09-01T03:38:12;1.67;;;1.23;;
8538;SDS011;4307;53.868;11.680;2022-09-01T03:40:47;1.07;;;1.07;;
8538;SDS011;4307;53.868;11.680;2022-09-01T03:43:16;3.70;;;0.90;;
8538;SDS011;4307;53.868;11.680;2022-09-01T03:45:43;1.50;;;1.40;;
8538;SDS011;4307;53.868;11.680;2022-09-01T03:48:11;0.97;;;0.97;;
8538;SDS011;4307;53.868;11.680;2022-09-01T03:50:41;1.57;;;1.00;;
8538;SDS011;4307;53.868;11.680;2022-09-01T03:53:10;1.30;;;1.20;;
8538;SDS011;4307;53.868;11.680;2022-09-01T03:55:38;3.33;;;1.77;;
8538;SDS011;4307;53.868;11.680;2022-09-01T03:58:06;1.00;;;0.90;;
8538;SDS011;4307;53.868;11.680;2022-09-01T04:00:38;1.37;;;1.27;;
8538;SDS011;4307;53.868;11.680;2022-09-01T04:03:07;1.40;;;1.30;;
8538;SDS011;4307;53.868;11.680;2022-09-01T04:05:36;1.93;;;1.40;;
8538;SDS011;4307;53.868;11.680;2022-09-01T04:08:05;1.17;;;1.07;;
8538;SDS011;4307;53.868;11.680;2022-09-01T04:10:35;1.87;;;1.00;;
8538;SDS011;4307;53.868;11.680;2022-09-01T04:13:08;0.97;;;0.97;;
8538;SDS011;4307;53.868;11.680;2022-09-01T04:15:37;1.00;;;1.00;;
8538;SDS011;4307;53.868;11.680;2022-09-01T04:18:04;0.80;;;0.80;;
8538;SDS011;4307;53.868;11.680;2022-09-01T04:20:34;1.90;;;0.80;;
8538;SDS011;4307;53.868;11.680;2022-09-01T04:23:12;3.47;;;1.03;;
8538;SDS011;4307;53.868;11.680;2022-09-01T04:25:41;0.80;;;0.80;;
8538;SDS011;4307;53.868;11.680;2022-09-01T04:28:08;1.10;;;1.00;;
8538;SDS011;4307;53.868;11.680;2022-09-01T04:30:43;2.30;;;1.07;;
8538;SDS011;4307;53.868;11.680;2022-09-01T04:33:09;1.47;;;1.30;;
8538;SDS011;4307;53.868;11.680;2022-09-01T04:35:37;1.83;;;1.17;;
8538;SDS011;4307;53.868;11.680;2022-09-01T04:38:04;5.20;;;1.27;;
8538;SDS011;4307;53.868;11.680;2022-09-01T04:40:32;2.00;;;1.30;;
8538;SDS011;4307;53.868;11.680;2022-09-01T04:43:02;3.60;;;1.60;;
8538;SDS011;4307;53.868;11.680;2022-09-01T04:45:29;1.40;;;0.93;;
8538;SDS011;4307;53.868;11.680;2022-09-01T04:48:00;0.73;;;0.73;;
8538;SDS011;4307;53.868;11.680;2022-09-01T04:50:27;1.33;;;1.20;;
8538;SDS011;4307;53.868;11.680;2022-09-01T04:52:54;0.83;;;0.83;;
8538;SDS011;4307;53.868;11.680;2022-09-01T04:55:24;1.50;;;0.90;;
8538;SDS011;4307;53.868;11.680;2022-09-01T04:57:52;2.50;;;1.30;;
8538;SDS011;4307;53.868;11.680;2022-09-01T05:00:20;2.27;;;1.03;;
8538;SDS011;4307;53.868;11.680;2022-09-01T05:02:48;1.33;;;1.20;;
8538;SDS011;4307;53.868;11.680;2022-09-01T05:05:19;2.33;;;1.10;;
8538;SDS011;4307;53.868;11.680;2022-09-01T05:07:46;2.73;;;1.13;;
8538;SDS011;4307;53.868;11.680;2022-09-01T05:10:19;2.40;;;1.13;;
8538;SDS011;4307;53.868;11.680;2022-09-01T05:12:47;3.63;;;1.40;;
8538;SDS011;4307;53.868;11.680;2022-09-01T05:15:16;1.97;;;1.40;;
8538;SDS011;4307;53.868;11.680;2022-09-01T05:17:45;2.57;;;1.70;;
8538;SDS011;4307;53.868;11.680;2022-09-01T05:20:11;2.40;;;1.90;;
8538;SDS011;4307;53.868;11.680;2022-09-01T05:22:39;2.73;;;1.67;;
8538;SDS011;4307;53.868;11.680;2022-09-01T05:25:06;1.60;;;1.50;;
8538;SDS011;4307;53.868;11.680;2022-09-01T05:27:40;3.87;;;1.73;;
8538;SDS011;4307;53.868;11.680;2022-09-01T05:30:09;2.10;;;1.90;;
8538;SDS011;4307;53.868;11.680;2022-09-01T05:32:36;2.00;;;1.77;;
8538;SDS011;4307;53.868;11.680;2022-09-01T05:35:04;1.60;;;1.50;;
8538;SDS011;4307;53.868;11.680;2022-09-01T05:37:33;1.70;;;1.60;;
8538;SDS011;4307;53.868;11.680;2022-09-01T05:40:03;4.27;;;2.10;;
8538;SDS011;4307;53.868;11.680;2022-09-01T05:42:33;1.97;;;1.87;;
8538;SDS011;4307;53.868;11.680;2022-09-01T05:45:03;2.43;;;1.93;;
8538;SDS011;4307;53.868;11.680;2022-09-01T05:47:31;2.23;;;2.13;;
8538;SDS011;4307;53.868;11.680;2022-09-01T05:50:01;1.93;;;1.83;;
8538;SDS011;4307;53.868;11.680;2022-09-01T05:52:28;4.73;;;1.53;;
8538;SDS011;4307;53.868;11.680;2022-09-01T05:54:58;3.67;;;1.80;;
8538;SDS011;4307;53.868;11.680;2022-09-01T05:57:27;2.60;;;2.40;;
8538;SDS011;4307;53.868;11.680;2022-09-01T05:59:53;3.00;;;1.63;;
8538;SDS011;4307;53.868;11.680;2022-09-01T06:02:20;3.80;;;2.00;;
8538;SDS011;4307;53.868;11.680;2022-09-01T06:04:50;5.60;;;2.70;;
8538;SDS011;4307;53.868;11.680;2022-09-01T06:07:19;3.07;;;1.97;;
8538;SDS011;4307;53.868;11.680;2022-09-01T06:09:47;2.87;;;2.57;;
8538;SDS011;4307;53.868;11.680;2022-09-01T06:12:17;2.80;;;2.60;;
8538;SDS011;4307;53.868;11.680;2022-09-01T06:14:46;2.43;;;2.23;;
8538;SDS011;4307;53.868;11.680;2022-09-01T06:17:13;3.23;;;2.30;;
8538;SDS011;4307;53.868;11.680;2022-09-01T06:19:40;3.47;;;2.17;;
8538;SDS011;4307;53.868;11.680;2022-09-01T06:22:07;2.40;;;2.20;;
8538;SDS011;4307;53.868;11.680;2022-09-01T06:24:34;3.37;;;1.97;;
8538;SDS011;4307;53.868;11.680;2022-09-01T06:27:03;1.90;;;1.80;;
8538;SDS011;4307;53.868;11.680;2022-09-01T06:29:33;3.53;;;2.00;;
8538;SDS011;4307;53.868;11.680;2022-09-01T06:32:04;1.97;;;1.87;;
8538;SDS011;4307;53.868;11.680;2022-09-01T06:34:33;5.70;;;2.07;;
8538;SDS011;4307;53.868;11.680;2022-09-01T06:37:00;4.00;;;2.73;;
8538;SDS011;4307;53.868;11.680;2022-09-01T06:39:27;3.20;;;2.13;;
8538;SDS011;4307;53.868;11.680;2022-09-01T06:41:55;3.40;;;2.40;;
8538;SDS011;4307;53.868;11.680;2022-09-01T06:44:23;3.40;;;2.20;;
8538;SDS011;4307;53.868;11.680;2022-09-01T06:46:50;4.77;;;1.57;;
8538;SDS011;4307;53.868;11.680;2022-09-01T06:49:18;2.00;;;1.67;;
8538;SDS011;4307;53.868;11.680;2022-09-01T06:51:56;2.13;;;1.83;;
8538;SDS011;4307;53.868;11.680;2022-09-01T06:54:23;2.80;;;1.50;;
8538;SDS011;4307;53.868;11.680;2022-09-01T06:56:50;1.73;;;1.63;;
8538;SDS011;4307;53.868;11.680;2022-09-01T06:59:17;1.97;;;1.30;;
8538;SDS011;4307;53.868;11.680;2022-09-01T07:01:45;2.13;;;1.50;;
8538;SDS011;4307;53.868;11.680;2022-09-01T07:04:13;2.10;;;1.30;;
8538;SDS011;4307;53.868;11.680;2022-09-01T07:06:42;1.40;;;1.30;;
8538;SDS011;4307;53.868;11.680;2022-09-01T07:09:09;4.07;;;1.13;;
8538;SDS011;4307;53.868;11.680;2022-09-01T07:11:36;2.50;;;1.57;;
8538;SDS011;4307;53.868;11.680;2022-09-01T07:14:03;2.10;;;1.43;;
8538;SDS011;4307;53.868;11.680;2022-09-01T07:16:32;1.40;;;1.30;;
8538;SDS011;4307;53.868;11.680;2022-09-01T07:19:04;1.97;;;1.20;;
8538;SDS011;4307;53.868;11.680;2022-09-01T07:21:37;1.40;;;1.30;;
8538;SDS011;4307;53.868;11.680;2022-09-01T07:24:06;0.90;;;0.90;;
8538;SDS011;4307;53.868;11.680;2022-09-01T07:26:33;1.40;;;1.20;;
8538;SDS011;4307;53.868;11.680;2022-09-01T07:29:01;1.70;;;1.33;;
8538;SDS011;4307;53.868;11.680;2022-09-01T07:31:30;1.20;;;1.10;;
8538;SDS011;4307;53.868;11.680;2022-09-01T07:34:00;1.33;;;0.93;;
8538;SDS011;4307;53.868;11.680;2022-09-01T07:36:29;1.50;;;1.00;;
8538;SDS011;4307;53.868;11.680;2022-09-01T07:38:57;2.80;;;0.90;;
8538;SDS011;4307;53.868;11.680;2022-09-01T07:41:26;1.67;;;1.10;;
8538;SDS011;4307;53.868;11.680;2022-09-01T07:43:53;0.77;;;0.77;;
8538;SDS011;4307;53.868;11.680;2022-09-01T07:46:21;0.53;;;0.53;;
8538;SDS011;4307;53.868;11.680;2022-09-01T07:48:51;0.93;;;0.87;;
8538;SDS011;4307;53.868;11.680;2022-09-01T07:51:19;1.10;;;1.00;;
8538;SDS011;4307;53.868;11.680;2022-09-01T07:53:47;1.03;;;0.90;;
8538;SDS011;4307;53.868;11.680;2022-09-01T07:56:15;2.30;;;0.90;;
8538;SDS011;4307;53.868;11.680;2022-09-01T07:58:46;1.10;;;1.00;;
8538;SDS011;4307;53.868;11.680;2022-09-01T08:01:15;0.77;;;0.77;;
8538;SDS011;4307;53.868;11.680;2022-09-01T08:03:44;0.70;;;0.70;;
8538;SDS011;4307;53.868;11.680;2022-09-01T08:06:12;0.60;;;0.60;;
8538;SDS011;4307;53.868;11.680;2022-09-01T08:08:43;1.23;;;1.10;;
8538;SDS011;4307;53.868;11.680;2022-09-01T08:11:15;0.90;;;0.90;;
8538;SDS011;4307;53.868;11.680;2022-09-01T08:13:42;0.60;;;0.60;;
8538;SDS011;4307;53.868;11.680;2022-09-01T08:16:10;0.60;;;0.60;;
8538;SDS011;4307;53.868;11.680;2022-09-01T08:18:37;0.93;;;0.60;;
8538;SDS011;4307;53.868;11.680;2022-09-01T08:21:05;0.90;;;0.60;;
8538;SDS011;4307;53.868;11.680;2022-09-01T08:23:32;2.30;;;1.00;;
8538;SDS011;4307;53.868;11.680;2022-09-01T08:26:03;0.73;;;0.73;;
8538;SDS011;4307;53.868;11.680;2022-09-01T08:28:30;6.07;;;1.27;;
8538;SDS011;4307;53.868;11.680;2022-09-01T08:30:57;0.70;;;0.70;;
8538;SDS011;4307;53.868;11.680;2022-09-01T08:33:25;2.17;;;0.93;;
8538;SDS011;4307;53.868;11.680;2022-09-01T08:35:53;0.40;;;0.40;;
8538;SDS011;4307;53.868;11.680;2022-09-01T08:38:21;2.00;;;0.90;;
8538;SDS011;4307;53.868;11.680;2022-09-01T08:40:49;0.70;;;0.70;;
8538;SDS011;4307;53.868;11.680;2022-09-01T08:43:17;1.20;;;1.10;;
8538;SDS011;4307;53.868;11.680;2022-09-01T08:45:51;0.63;;;0.63;;
8538;SDS011;4307;53.868;11.680;2022-09-01T08:48:20;1.10;;;1.00;;
8538;SDS011;4307;53.868;11.680;2022-09-01T08:50:54;1.23;;;1.10;;
8538;SDS011;4307;53.868;11.680;2022-09-01T08:53:39;1.33;;;1.23;;
8538;SDS011;4307;53.868;11.680;2022-09-01T08:56:09;2.53;;;0.87;;
8538;SDS011;4307;53.868;11.680;2022-09-01T08:58:37;1.13;;;1.03;;
8538;SDS011;4307;53.868;11.680;2022-09-01T09:01:07;1.23;;;0.90;;
8538;SDS011;4307;53.868;11.680;2022-09-01T09:03:37;0.67;;;0.67;;
8538;SDS011;4307;53.868;11.680;2022-09-01T09:06:12;1.20;;;0.90;;
8538;SDS011;4307;53.868;11.680;2022-09-01T09:08:52;0.90;;;0.90;;
8538;SDS011;4307;53.868;11.680;2022-09-01T09:11:31;1.70;;;0.80;;
8538;SDS011;4307;53.868;11.680;2022-09-01T09:14:13;0.80;;;0.80;;
8538;SDS011;4307;53.868;11.680;2022-09-01T09:16:51;0.50;;;0.50;;
8538;SDS011;4307;53.868;11.680;2022-09-01T09:19:21;2.40;;;1.27;;
8538;SDS011;4307;53.868;11.680;2022-09-01T09:21:53;0.57;;;0.57;;
8538;SDS011;4307;53.868;11.680;2022-09-01T09:24:23;3.00;;;0.60;;
8538;SDS011;4307;53.868;11.680;2022-09-01T09:26:53;5.43;;;1.00;;
8538;SDS011;4307;53.868;11.680;2022-09-01T09:29:22;1.20;;;0.80;;
8538;SDS011;4307;53.868;11.680;2022-09-01T09:32:00;0.40;;;0.40;;
8538;SDS011;4307;53.868;11.680;2022-09-01T09:34:29;0.70;;;0.70;;
8538;SDS011;4307;53.868;11.680;2022-09-01T09:37:01;0.60;;;0.60;;
8538;SDS011;4307;53.868;11.680;2022-09-01T09:40:01;1.50;;;0.70;;
8538;SDS011;4307;53.868;11.680;2022-09-01T09:42:33;3.00;;;0.67;;
8538;SDS011;4307;53.868;11.680;2022-09-01T09:45:04;1.00;;;0.73;;
8538;SDS011;4307;53.868;11.680;2022-09-01T09:47:33;0.70;;;0.70;;
8538;SDS011;4307;53.868;11.680;2022-09-01T09:50:09;2.07;;;0.90;;
8538;SDS011;4307;53.868;11.680;2022-09-01T09:52:44;1.43;;;0.70;;
8538;SDS011;4307;53.868;11.680;2022-09-01T09:55:22;0.60;;;0.60;;
8538;SDS011;4307;53.868;11.680;2022-09-01T09:57:52;0.67;;;0.67;;
8538;SDS011;4307;53.868;11.680;2022-09-01T10:00:23;0.70;;;0.60;;
8538;SDS011;4307;53.868;11.680;2022-09-01T10:02:55;0.73;;;0.70;;
8538;SDS011;4307;53.868;11.680;2022-09-01T10:05:33;1.00;;;0.73;;
8538;SDS011;4307;53.868;11.680;2022-09-01T10:08:04;0.87;;;0.77;;
8538;SDS011;4307;53.868;11.680;2022-09-01T10:10:36;0.67;;;0.67;;
8538;SDS011;4307;53.868;11.680;2022-09-01T10:13:07;0.77;;;0.70;;
8538;SDS011;4307;53.868;11.680;2022-09-01T10:15:35;1.93;;;0.57;;
8538;SDS011;4307;53.868;11.680;2022-09-01T10:18:03;1.23;;;0.60;;
8538;SDS011;4307;53.868;11.680;2022-09-01T10:20:35;0.70;;;0.70;;
8538;SDS011;4307;53.868;11.680;2022-09-01T10:23:04;0.53;;;0.53;;
8538;SDS011;4307;53.868;11.680;2022-09-01T10:25:32;0.93;;;0.83;;
8538;SDS011;4307;53.868;11.680;2022-09-01T10:28:03;0.77;;;0.77;;
8538;SDS011;4307;53.868;11.680;2022-09-01T10:30:35;0.60;;;0.60;;
8538;SDS011;4307;53.868;11.680;2022-09-01T10:33:06;1.63;;;0.60;;
8538;SDS011;4307;53.868;11.680;2022-09-01T10:35:34;0.60;;;0.60;;
8538;SDS011;4307;53.868;11.680;2022-09-01T10:38:06;0.37;;;0.33;;
8538;SDS011;4307;53.868;11.680;2022-09-01T10:40:36;2.70;;;0.70;;
8538;SDS011;4307;53.868;11.680;2022-09-01T10:43:21;0.70;;;0.60;;
8538;SDS011;4307;53.868;11.680;2022-09-01T10:49:12;1.33;;;0.97;;
8538;SDS011;4307;53.868;11.680;2022-09-01T10:52:07;1.77;;;1.00;;
8538;SDS011;4307;53.868;11.680;2022-09-01T10:54:57;0.70;;;0.70;;
8538;SDS011;4307;53.868;11.680;2022-09-01T10:57:46;1.67;;;0.90;;
8538;SDS011;4307;53.868;11.680;2022-09-01T11:03:31;2.10;;;0.80;;
8538;SDS011;4307;53.868;11.680;2022-09-01T11:09:26;1.70;;;0.70;;
8538;SDS011;4307;53.868;11.680;2022-09-01T11:12:02;3.10;;;0.63;;
8538;SDS011;4307;53.868;11.680;2022-09-01T11:14:47;0.60;;;0.60;;
8538;SDS011;4307;53.868;11.680;2022-09-01T11:17:16;0.53;;;0.50;;
8538;SDS011;4307;53.868;11.680;2022-09-01T11:19:46;5.73;;;3.47;;
8538;SDS011;4307;53.868;11.680;2022-09-01T11:22:24;0.87;;;0.70;;
8538;SDS011;4307;53.868;11.680;2022-09-01T11:25:07;0.50;;;0.50;;
8538;SDS011;4307;53.868;11.680;2022-09-01T11:27:56;0.50;;;0.50;;
8538;SDS011;4307;53.868;11.680;2022-09-01T11:30:43;1.90;;;0.40;;
8538;SDS011;4307;53.868;11.680;2022-09-01T11:33:23;0.77;;;0.77;;
8538;SDS011;4307;53.868;11.680;2022-09-01T11:35:59;0.70;;;0.67;;
8538;SDS011;4307;53.868;11.680;2022-09-01T11:38:28;0.73;;;0.73;;
8538;SDS011;4307;53.868;11.680;2022-09-01T11:40:58;0.57;;;0.50;;
8538;SDS011;4307;53.868;11.680;2022-09-01T11:43:26;0.60;;;0.60;;
8538;SDS011;4307;53.868;11.680;2022-09-01T11:45:58;2.50;;;0.60;;
8538;SDS011;4307;53.868;11.680;2022-09-01T11:48:32;0.50;;;0.50;;
8538;SDS011;4307;53.868;11.680;2022-09-01T11:51:00;0.77;;;0.77;;
8538;SDS011;4307;53.868;11.680;2022-09-01T11:53:28;4.90;;;0.60;;
8538;SDS011;4307;53.868;11.680;2022-09-01T11:55:55;0.70;;;0.60;;
8538;SDS011;4307;53.868;11.680;2022-09-01T11:58:40;1.70;;;0.93;;
8538;SDS011;4307;53.868;11.680;2022-09-01T12:01:11;1.43;;;0.80;;
8538;SDS011;4307;53.868;11.680;2022-09-01T12:03:43;1.17;;;0.43;;
8538;SDS011;4307;53.868;11.680;2022-09-01T12:06:11;1.07;;;0.60;;
8538;SDS011;4307;53.868;11.680;2022-09-01T12:08:50;2.20;;;0.80;;
8538;SDS011;4307;53.868;11.680;2022-09-01T12:11:20;0.40;;;0.40;;
8538;SDS011;4307;53.868;11.680;2022-09-01T12:13:55;0.43;;;0.43;;
8538;SDS011;4307;53.868;11.680;2022-09-01T12:16:24;0.43;;;0.43;;
8538;SDS011;4307;53.868;11.680;2022-09-01T12:18:52;0.57;;;0.57;;
8538;SDS011;4307;53.868;11.680;2022-09-01T12:21:21;1.40;;;0.77;;
8538;SDS011;4307;53.868;11.680;2022-09-01T12:23:50;0.60;;;0.60;;
8538;SDS011;4307;53.868;11.680;2022-09-01T12:26:18;3.33;;;0.83;;
8538;SDS011;4307;53.868;11.680;2022-09-01T12:28:55;1.23;;;0.40;;
8538;SDS011;4307;53.868;11.680;2022-09-01T12:31:23;0.70;;;0.70;;
8538;SDS011;4307;53.868;11.680;2022-09-01T12:33:52;0.47;;;0.47;;
8538;SDS011;4307;53.868;11.680;2022-09-01T12:36:21;2.00;;;0.70;;
8538;SDS011;4307;53.868;11.680;2022-09-01T12:38:50;1.00;;;0.70;;
8538;SDS011;4307;53.868;11.680;2022-09-01T12:41:24;0.77;;;0.50;;
8538;SDS011;4307;53.868;11.680;2022-09-01T12:43:57;2.13;;;0.90;;
8538;SDS011;4307;53.868;11.680;2022-09-01T12:46:55;1.40;;;0.60;;
8538;SDS011;4307;53.868;11.680;2022-09-01T12:49:23;2.00;;;0.70;;
8538;SDS011;4307;53.868;11.680;2022-09-01T12:52:04;2.23;;;0.93;;
8538;SDS011;4307;53.868;11.680;2022-09-01T12:54:34;0.87;;;0.73;;
8538;SDS011;4307;53.868;11.680;2022-09-01T12:57:02;1.00;;;0.90;;
8538;SDS011;4307;53.868;11.680;2022-09-01T12:59:30;1.93;;;0.93;;
8538;SDS011;4307;53.868;11.680;2022-09-01T13:01:57;0.83;;;0.80;;
8538;SDS011;4307;53.868;11.680;2022-09-01T13:04:52;0.93;;;0.70;;
8538;SDS011;4307;53.868;11.680;2022-09-01T13:07:19;1.70;;;0.50;;
8538;SDS011;4307;53.868;11.680;2022-09-01T13:09:46;0.60;;;0.60;;
8538;SDS011;4307;53.868;11.680;2022-09-01T13:12:16;0.40;;;0.40;;
8538;SDS011;4307;53.868;11.680;2022-09-01T13:14:46;0.50;;;0.50;;
8538;SDS011;4307;53.868;11.680;2022-09-01T13:17:12;0.60;;;0.60;;
8538;SDS011;4307;53.868;11.680;2022-09-01T13:19:39;2.27;;;0.83;;
8538;SDS011;4307;53.868;11.680;2022-09-01T13:22:06;0.60;;;0.60;;
8538;SDS011;4307;53.868;11.680;2022-09-01T13:24:33;0.50;;;0.50;;
8538;SDS011;4307;53.868;11.680;2022-09-01T13:27:00;0.70;;;0.70;;
8538;SDS011;4307;53.868;11.680;2022-09-01T13:29:26;1.63;;;0.83;;
8538;SDS011;4307;53.868;11.680;2022-09-01T13:31:54;0.73;;;0.70;;
8538;SDS011;4307;53.868;11.680;2022-09-01T13:34:22;0.43;;;0.43;;
8538;SDS011;4307;53.868;11.680;2022-09-01T13:36:48;1.20;;;0.87;;
8538;SDS011;4307;53.868;11.680;2022-09-01T13:39:15;2.73;;;0.67;;
8538;SDS011;4307;53.868;11.680;2022-09-01T13:41:42;0.77;;;0.63;;
8538;SDS011;4307;53.868;11.680;2022-09-01T13:44:08;0.60;;;0.60;;
8538;SDS011;4307;53.868;11.680;2022-09-01T13:46:35;1.33;;;1.23;;
8538;SDS011;4307;53.868;11.680;2022-09-01T13:49:04;1.33;;;1.07;;
8538;SDS011;4307;53.868;11.680;2022-09-01T13:51:30;0.70;;;0.70;;
8538;SDS011;4307;53.868;11.680;2022-09-01T13:53:59;0.93;;;0.67;;
8538;SDS011;4307;53.868;11.680;2022-09-01T13:56:25;0.73;;;0.73;;
8538;SDS011;4307;53.868;11.680;2022-09-01T13:58:52;0.70;;;0.70;;
8538;SDS011;4307;53.868;11.680;2022-09-01T14:01:19;1.00;;;1.00;;
8538;SDS011;4307;53.868;11.680;2022-09-01T14:03:47;1.43;;;0.70;;
8538;SDS011;4307;53.868;11.680;2022-09-01T14:06:15;0.80;;;0.80;;
8538;SDS011;4307;53.868;11.680;2022-09-01T14:08:42;2.17;;;0.77;;
8538;SDS011;4307;53.868;11.680;2022-09-01T14:11:14;1.50;;;0.60;;
8538;SDS011;4307;53.868;11.680;2022-09-01T14:13:41;0.63;;;0.50;;
8538;SDS011;4307;53.868;11.680;2022-09-01T14:16:09;0.57;;;0.57;;
8538;SDS011;4307;53.868;11.680;2022-09-01T14:18:37;1.00;;;0.93;;
8538;SDS011;4307;53.868;11.680;2022-09-01T14:21:04;0.50;;;0.50;;
8538;SDS011;4307;53.868;11.680;2022-09-01T14:23:37;0.50;;;0.50;;
8538;SDS011;4307;53.868;11.680;2022-09-01T14:26:07;1.07;;;1.07;;
8538;SDS011;4307;53.868;11.680;2022-09-01T14:28:35;0.80;;;0.80;;
8538;SDS011;4307;53.868;11.680;2022-09-01T14:31:06;6.27;;;0.70;;
8538;SDS011;4307;53.868;11.680;2022-09-01T14:33:33;1.40;;;0.70;;
8538;SDS011;4307;53.868;11.680;2022-09-01T14:36:00;0.50;;;0.50;;
8538;SDS011;4307;53.868;11.680;2022-09-01T14:38:27;0.73;;;0.73;;
8538;SDS011;4307;53.868;11.680;2022-09-01T14:40:56;1.33;;;1.07;;
8538;SDS011;4307;53.868;11.680;2022-09-01T14:43:22;1.40;;;0.73;;
8538;SDS011;4307;53.868;11.680;2022-09-01T14:46:00;0.40;;;0.40;;
8538;SDS011;4307;53.868;11.680;2022-09-01T14:48:30;2.13;;;0.63;;
8538;SDS011;4307;53.868;11.680;2022-09-01T14:50:58;0.87;;;0.50;;
8538;SDS011;4307;53.868;11.680;2022-09-01T14:53:25;3.13;;;1.57;;
8538;SDS011;4307;53.868;11.680;2022-09-01T14:55:52;2.77;;;0.50;;
8538;SDS011;4307;53.868;11.680;2022-09-01T14:58:20;1.03;;;0.70;;
8538;SDS011;4307;53.868;11.680;2022-09-01T15:00:47;2.97;;;0.70;;
8538;SDS011;4307;53.868;11.680;2022-09-01T15:03:14;2.90;;;0.70;;
8538;SDS011;4307;53.868;11.680;2022-09-01T15:05:41;1.70;;;0.80;;
8538;SDS011;4307;53.868;11.680;2022-09-01T15:08:08;0.83;;;0.80;;
8538;SDS011;4307;53.868;11.680;2022-09-01T15:10:35;0.50;;;0.50;;
8538;SDS011;4307;53.868;11.680;2022-09-01T15:13:02;0.87;;;0.53;;
8538;SDS011;4307;53.868;11.680;2022-09-01T15:15:30;1.60;;;1.03;;
8538;SDS011;4307;53.868;11.680;2022-09-01T15:17:57;0.73;;;0.73;;
8538;SDS011;4307;53.868;11.680;2022-09-01T15:20:25;2.63;;;0.80;;
8538;SDS011;4307;53.868;11.680;2022-09-01T15:23:11;1.90;;;0.50;;
8538;SDS011;4307;53.868;11.680;2022-09-01T15:25:39;1.47;;;0.97;;
8538;SDS011;4307;53.868;11.680;2022-09-01T15:28:06;0.67;;;0.67;;